Time;durP1;ratioP1;P1;durP2;ratioP2;P2;SDS_P1;SDS_P2;PMS_P1;PMS_P2;Temp;Humidity;BMP_temperature;BMP_pressure;BME280_temperature;BME280_humidity;BME280_pressure;Samples;Min_cycle;Max_cycle;Signal;HPM_P1;HPM_P2
2022/08/11 00:00:46;;;;;;;29.52;20.52;;;;;;;23.00;94.53;99588.72;10291138;28;20495;-69
2022/08/11 00:05:53;;;;;;;24.38;18.80;;;;;;;23.08;94.46;99584.66;10291201;28;20050;-69
2022/08/11 00:11:07;;;;;;;27.27;19.15;;;;;;;22.60;95.65;99510.09;10289988;28;20043;-68
2022/08/11 00:16:20;;;;;;;22.45;19.23;;;;;;;22.88;95.68;99549.38;10290473;28;20113;-69
2022/08/11 00:21:23;;;;;;;24.27;18.95;;;;;;;23.00;93.46;99580.59;10290358;28;20047;-69
2022/08/11 00:26:26;;;;;;;25.07;18.83;;;;;;;22.63;94.08;99532.00;10291354;28;20066;-70
2022/08/11 00:31:30;;;;;;;25.85;18.85;;;;;;;22.93;94.28;99574.59;10290364;28;20293;-70
2022/08/11 00:37:06;;;;;;;25.73;18.10;;;;;;;22.96;97.02;99579.50;10290575;28;20471;-69
2022/08/11 00:42:35;;;;;;;27.30;18.42;;;;;;;22.73;96.83;99545.56;10277009;28;20051;-69
2022/08/11 00:48:03;;;;;;;24.58;18.02;;;;;;;22.92;97.50;99566.75;10296224;28;20085;-69
2022/08/11 00:53:22;;;;;;;24.20;17.88;;;;;;;22.36;94.04;99471.88;10297084;28;20499;-69
2022/08/11 00:58:57;;;;;;;20.85;17.77;;;;;;;22.86;98.06;99557.78;10296829;28;20603;-69
2022/08/11 01:03:58;;;;;;;28.85;18.23;;;;;;;22.80;94.71;99556.16;10331339;28;20053;-69
2022/08/11 01:09:17;;;;;;;40.78;18.67;;;;;;;21.99;97.29;99424.13;10336725;28;20053;-69
2022/08/11 01:14:55;;;;;;;33.45;18.83;;;;;;;22.92;96.86;99567.56;10337250;28;20050;-69
2022/08/11 01:20:13;;;;;;;24.13;18.40;;;;;;;22.91;96.51;99570.50;10336998;28;20129;-69
2022/08/11 01:25:39;;;;;;;23.85;18.60;;;;;;;22.79;96.29;99577.00;10336346;28;20062;-70
2022/08/11 01:30:49;;;;;;;25.20;18.60;;;;;;;22.61;96.63;99572.06;10336052;28;20050;-70
2022/08/11 01:36:08;;;;;;;26.33;19.80;;;;;;;22.49;96.67;99576.91;10335606;28;20130;-70
2022/08/11 01:47:49;;;;;;;46.40;21.27;;;;;;;22.14;95.73;99564.00;10335240;28;20042;-69
2022/08/11 01:52:58;;;;;;;34.13;20.75;;;;;;;22.25;96.15;99595.47;10335206;28;20042;-69
2022/08/11 01:58:02;;;;;;;144.10;25.60;;;;;;;22.22;94.38;99601.41;10334450;28;20037;-69
2022/08/11 02:03:03;;;;;;;;;;;;;;;22.37;92.77;99601.47;10335800;28;20405;-69
2022/08/11 02:08:40;;;;;;;76.97;22.65;;;;;;;22.28;96.31;99600.34;10334721;28;19917;-69
2022/08/11 02:14:23;;;;;;;46.70;20.92;;;;;;;22.30;97.39;99600.91;10334197;28;20038;-70
2022/08/11 02:25:40;;;;;;;62.42;22.30;;;;;;;22.29;98.35;99613.63;10325997;28;20097;-69
2022/08/11 02:36:32;;;;;;;26.23;18.98;;;;;;;21.90;96.51;99534.69;10293112;28;20487;-68
2022/08/11 02:47:27;;;;;;;35.00;18.05;;;;;;;22.68;97.21;99632.22;10324057;28;20054;-69
2022/08/11 02:53:02;;;;;;;38.88;19.60;;;;;;;22.93;98.74;99631.47;10332574;28;20042;-69
2022/08/11 02:58:10;;;;;;;34.95;17.85;;;;;;;22.74;96.70;99576.19;10332310;28;20034;-70
2022/08/11 03:03:24;;;;;;;25.83;17.45;;;;;;;23.30;93.81;99637.78;10333610;28;20450;-68
2022/08/11 03:08:50;;;;;;;27.25;17.52;;;;;;;23.27;94.66;99584.94;10331966;28;20042;-69
2022/08/11 03:20:02;;;;;;;30.23;17.05;;;;;;;24.17;91.26;99637.78;10332314;28;20133;-67
2022/08/11 03:25:34;;;;;;;33.30;17.42;;;;;;;24.96;87.32;99642.38;10330905;28;20062;-68
2022/08/11 03:30:49;;;;;;;35.92;18.17;;;;;;;25.89;80.86;99653.47;10324798;28;20049;-68
2022/08/11 03:36:28;;;;;;;23.60;16.85;;;;;;;26.86;75.75;99661.41;10308856;28;20094;-68
2022/08/11 03:42:26;;;;;;;26.23;17.35;;;;;;;28.01;71.19;99649.31;10291615;28;20077;-68
2022/08/11 03:47:43;;;;;;;28.95;16.60;;;;;;;28.46;67.41;99646.03;10311515;28;20054;-68
2022/08/11 03:52:57;;;;;;;28.15;18.73;;;;;;;28.59;64.29;99574.16;10327786;28;20561;-69
2022/08/11 03:58:31;;;;;;;25.42;18.67;;;;;;;28.94;65.44;99643.66;10318945;28;20194;-67
2022/08/11 04:04:05;;;;;;;30.17;18.33;;;;;;;28.47;65.77;99642.19;10295421;28;20550;-67
2022/08/11 04:09:24;;;;;;;35.08;18.65;;;;;;;27.24;70.00;99628.72;10296973;28;20039;-66
2022/08/11 04:20:50;;;;;;;28.13;19.27;;;;;;;26.81;73.03;99649.75;10331743;28;20053;-66
2022/08/11 04:26:02;;;;;;;29.77;20.67;;;;;;;26.45;73.28;99646.63;10320127;28;20584;-66
2022/08/11 04:31:34;;;;;;;36.37;20.30;;;;;;;26.56;75.87;99651.69;10323009;28;20100;-70
2022/08/11 05:06:07;;;;;;;33.58;18.15;;;;;;;29.70;63.26;99637.53;10297299;28;20135;-66
2022/08/11 05:11:29;;;;;;;23.23;16.83;;;;;;;29.04;62.27;99568.81;10291225;28;20130;-73
2022/08/11 06:00:25;;;;;;;19.75;13.35;;;;;;;28.51;60.78;99542.94;10295255;28;20125;-66
2022/08/11 06:05:34;;;;;;;18.45;12.95;;;;;;;29.21;60.69;99593.56;10295053;28;20049;-68
2022/08/11 06:10:38;;;;;;;24.63;12.55;;;;;;;29.31;58.72;99573.34;10294337;28;20105;-68
2022/08/11 06:15:48;;;;;;;19.20;12.20;;;;;;;29.34;58.47;99600.09;10294595;28;20434;-67
2022/08/11 06:20:56;;;;;;;17.27;10.98;;;;;;;29.40;54.56;99544.13;10294624;28;20046;-72
2022/08/11 06:25:59;;;;;;;21.60;11.45;;;;;;;30.29;53.21;99594.34;10293774;28;20058;-69
2022/08/11 06:31:02;;;;;;;19.40;10.93;;;;;;;30.85;51.70;99605.63;10294077;28;20451;-72
2022/08/11 06:36:23;;;;;;;25.73;12.15;;;;;;;30.79;48.20;99610.47;10293862;28;20042;-73
2022/08/11 06:41:57;;;;;;;18.73;12.07;;;;;;;30.06;50.32;99516.09;10286004;28;20074;-67
2022/08/11 06:47:07;;;;;;;27.40;12.60;;;;;;;30.14;50.27;99576.38;10284358;28;20129;-67
2022/08/11 06:52:16;;;;;;;22.08;12.70;;;;;;;29.89;50.19;99547.00;10293140;28;20488;-66
2022/08/11 07:02:50;;;;;;;22.70;15.05;;;;;;;30.55;48.81;99577.97;10293564;28;20042;-70
2022/08/11 07:30:10;;;;;;;22.20;14.18;;;;;;;32.05;46.86;99573.66;10291978;28;20053;-67
2022/08/11 07:35:15;;;;;;;27.38;15.23;;;;;;;31.90;47.09;99500.06;10291877;28;20110;-67
2022/08/11 07:40:22;;;;;;;31.73;15.23;;;;;;;31.93;45.58;99502.13;10291861;28;20039;-73
2022/08/11 07:56:06;;;;;;;22.13;14.00;;;;;;;32.16;45.02;99565.03;10294918;28;20125;-68
2022/08/11 08:22:29;;;;;;;16.67;13.05;;;;;;;33.03;42.23;99531.50;10298925;28;20500;-68
2022/08/11 08:27:30;;;;;;;21.75;12.98;;;;;;;32.94;43.09;99515.84;10298882;28;20085;-67
2022/08/11 08:32:33;;;;;;;29.20;13.63;;;;;;;33.12;42.67;99500.00;10298026;28;20051;-69
2022/08/11 08:37:34;;;;;;;23.13;12.68;;;;;;;33.40;42.25;99521.38;10298692;28;20086;-72
2022/08/11 08:42:45;;;;;;;29.85;12.13;;;;;;;33.62;41.26;99529.25;10297613;28;20526;-66
2022/08/11 08:48:01;;;;;;;19.30;12.40;;;;;;;33.34;41.85;99509.00;10297396;28;20042;-68
2022/08/11 08:53:05;;;;;;;21.92;11.57;;;;;;;33.55;41.82;99518.00;10297246;28;20034;-66
2022/08/11 08:58:07;;;;;;;32.33;12.77;;;;;;;33.28;42.32;99494.63;10297650;28;20035;-66
2022/08/11 09:03:09;;;;;;;;;;;;;;;33.44;40.74;99505.78;10298434;28;20379;-67
2022/08/11 09:08:10;;;;;;;21.70;13.20;;;;;;;33.18;42.80;99503.34;10296769;28;20408;-71
2022/08/11 09:13:13;;;;;;;21.85;12.82;;;;;;;33.29;42.36;99498.97;10297472;28;20044;-68
2022/08/11 09:18:17;;;;;;;22.23;12.07;;;;;;;33.61;41.51;99505.63;10296265;28;20058;-66
2022/08/11 09:28:40;;;;;;;19.25;11.73;;;;;;;33.09;41.33;99483.38;10296524;28;20062;-69
2022/08/11 09:33:43;;;;;;;24.63;12.43;;;;;;;32.28;42.28;99373.56;10296328;28;20051;-66
2022/08/11 09:49:25;;;;;;;25.33;13.20;;;;;;;34.01;41.63;99477.38;10295651;28;20562;-67
2022/08/11 09:54:26;;;;;;;23.13;13.43;;;;;;;34.29;41.06;99465.66;10295341;28;20031;-70
2022/08/11 09:59:27;;;;;;;43.97;14.88;;;;;;;34.14;40.46;99477.41;10294884;28;20043;-72
2022/08/11 10:04:39;;;;;;;31.23;14.15;;;;;;;33.80;41.30;99476.69;10300525;28;20506;-69
2022/08/11 10:09:51;;;;;;;27.92;12.18;;;;;;;33.70;41.11;99482.69;10335004;28;20053;-67
2022/08/11 10:20:19;;;;;;;37.15;14.02;;;;;;;34.01;41.45;99458.09;10333590;28;20038;-70
2022/08/11 10:36:23;;;;;;;29.52;12.75;;;;;;;33.72;41.25;99439.09;10315510;28;20051;-78
2022/08/11 11:02:47;;;;;;;;;;;;;;;34.33;40.59;99439.00;10331356;28;20141;-68
2022/08/11 11:08:51;;;;;;;31.48;11.85;;;;;;;34.40;40.96;99435.63;10347654;28;20441;-68
2022/08/11 11:18:52;;;;;;;23.73;12.38;;;;;;;33.98;41.63;99431.22;10322560;28;20081;-68
2022/08/11 11:24:13;;;;;;;49.40;13.82;;;;;;;33.77;43.02;99433.31;10299086;28;20042;-67
2022/08/11 11:29:30;;;;;;;23.80;11.60;;;;;;;33.84;42.23;99430.81;10291313;28;20051;-64
2022/08/11 11:35:08;;;;;;;18.98;11.48;;;;;;;33.90;42.73;99423.09;10291502;28;20058;-67
2022/08/11 11:40:12;;;;;;;30.92;12.02;;;;;;;33.88;42.23;99433.66;10291802;28;20088;-67
2022/08/11 11:45:22;;;;;;;23.10;11.15;;;;;;;33.96;41.38;99430.78;10290988;28;20511;-66
2022/08/11 11:50:33;;;;;;;31.52;11.85;;;;;;;33.91;41.63;99433.75;10291718;28;20047;-69
2022/08/11 11:55:35;;;;;;;37.40;11.53;;;;;;;34.03;42.09;99421.94;10291551;28;20101;-69
2022/08/11 12:05:57;;;;;;;22.80;11.30;;;;;;;34.06;41.63;99411.03;10290490;28;20046;-65
2022/08/11 12:16:21;;;;;;;28.65;9.95;;;;;;;33.68;42.24;99355.53;10311274;28;19913;-69
2022/08/11 12:21:23;;;;;;;29.55;9.45;;;;;;;33.89;41.98;99391.97;10319024;28;20404;-68
2022/08/11 12:31:45;;;;;;;29.05;8.57;;;;;;;33.99;41.19;99424.56;10290160;28;20042;-74
2022/08/11 12:37:04;;;;;;;41.70;9.23;;;;;;;34.01;41.36;99418.69;10290766;28;20039;-68
2022/08/11 12:51:55;;;;;;;36.22;7.60;;;;;;;33.61;40.92;99345.91;10320831;28;20553;-67
2022/08/11 12:52:53;;;;;;;25.93;7.17;;;;;;;34.05;40.57;99417.72;10308724;28;20077;-69
2022/08/11 13:08:35;;;;;;;24.92;6.60;;;;;;;33.73;39.97;99338.75;10311336;28;20058;-69
2022/08/11 13:13:41;;;;;;;22.70;7.00;;;;;;;34.14;39.84;99392.78;10296450;28;20134;-66
2022/08/11 13:18:43;;;;;;;39.85;6.93;;;;;;;34.23;40.17;99409.16;10297050;28;20398;-68
2022/08/11 13:23:45;;;;;;;28.30;6.82;;;;;;;34.19;39.66;99391.72;10296595;28;20046;-68
2022/08/11 13:28:47;;;;;;;25.70;6.70;;;;;;;34.35;39.75;99403.59;10295646;28;20149;-70
2022/08/11 13:33:50;;;;;;;28.10;7.03;;;;;;;34.18;39.77;99379.09;10307544;28;20130;-74
2022/08/11 13:38:53;;;;;;;24.90;7.28;;;;;;;34.26;39.80;99405.72;10295303;28;20050;-68
2022/08/11 13:43:55;;;;;;;36.90;8.82;;;;;;;34.18;39.74;99403.91;10295755;28;20073;-76
2022/08/11 13:48:57;;;;;;;41.10;8.68;;;;;;;34.09;39.32;99399.31;10317699;28;20062;-69
2022/08/11 13:54:06;;;;;;;29.30;8.53;;;;;;;33.57;39.58;99347.75;10333749;28;20069;-70
2022/08/11 13:59:08;;;;;;;33.17;7.97;;;;;;;33.86;39.49;99399.00;10335498;28;20045;-75
2022/08/11 14:04:13;;;;;;;35.75;8.80;;;;;;;33.79;39.09;99390.50;10326916;28;20050;-70
2022/08/11 14:09:21;;;;;;;35.47;9.27;;;;;;;33.75;38.64;99389.59;10334871;28;20483;-77
2022/08/11 14:14:28;;;;;;;51.58;9.57;;;;;;;33.56;38.04;99390.19;10335207;28;20046;-74
2022/08/11 14:19:34;;;;;;;32.40;8.32;;;;;;;33.51;38.97;99406.94;10335593;28;20140;-77
2022/08/11 14:24:41;;;;;;;43.20;9.60;;;;;;;33.40;38.65;99405.75;10334283;28;20096;-71
2022/08/11 14:29:43;;;;;;;48.53;9.30;;;;;;;33.04;38.87;99349.56;10332469;28;20086;-75
2022/08/11 14:34:44;;;;;;;29.98;8.57;;;;;;;33.30;38.90;99398.78;10303959;28;20047;-72
2022/08/11 14:39:53;;;;;;;57.28;9.68;;;;;;;33.10;39.23;99386.69;10293390;28;20081;-79
2022/08/11 14:47:03;;;;;;;43.30;9.77;;;;;;;32.61;39.79;99325.25;10293236;28;20506;-70
2022/08/11 14:50:23;;;;;;;45.63;9.35;;;;;;;32.54;39.67;99339.56;10293014;28;20074;-72
2022/08/11 15:00:55;;;;;;;34.25;9.88;;;;;;;32.66;39.88;99385.53;10292923;28;20133;-71
2022/08/11 15:06:00;;;;;;;38.90;9.02;;;;;;;32.37;40.39;99354.25;10293176;28;20053;-73
2022/08/11 15:12:07;;;;;;;35.63;9.18;;;;;;;32.34;40.28;99356.84;10292318;28;20054;-68
2022/08/11 15:37:57;;;;;;;36.75;9.43;;;;;;;31.85;41.48;99379.38;10329867;28;20042;-74
2022/08/11 15:48:24;;;;;;;;;;;;;;;32.20;41.01;99453.34;10330260;28;20050;-70
2022/08/11 15:53:41;;;;;;;34.65;10.57;;;;;;;31.98;41.63;99462.66;10331176;28;19925;-75
2022/08/11 16:04:10;;;;;;;41.80;11.48;;;;;;;31.77;42.18;99474.41;10299663;28;20046;-67
2022/08/11 16:09:13;;;;;;;36.40;11.70;;;;;;;31.15;42.08;99398.13;10291094;28;20097;-75
2022/08/11 16:19:39;;;;;;;34.42;11.70;;;;;;;31.41;41.97;99488.63;10299537;28;20416;-75
2022/08/11 16:24:44;;;;;;;39.67;12.38;;;;;;;31.17;42.15;99456.19;10297661;28;20102;-69
2022/08/11 16:29:49;;;;;;;52.17;12.95;;;;;;;30.30;42.32;99356.81;10298129;28;20059;-70
2022/08/11 16:40:24;;;;;;;64.55;12.45;;;;;;;30.53;43.12;99436.91;10298293;28;20050;-69
2022/08/11 16:50:46;;;;;;;33.38;10.95;;;;;;;30.58;44.56;99500.59;10321995;28;20043;-76
2022/08/11 16:55:50;;;;;;;42.40;11.80;;;;;;;30.56;44.67;99508.31;10332924;28;20050;-70
2022/08/11 17:00:51;;;;;;;37.15;11.07;;;;;;;30.27;45.03;99483.47;10337377;28;20066;-72
2022/08/11 17:16:37;;;;;;;35.60;11.95;;;;;;;29.79;46.04;99468.66;10297216;28;20047;-71
2022/08/11 17:27:02;;;;;;;;;;;;;;;30.19;46.06;99535.16;10319957;28;20066;-70
2022/08/11 17:37:27;;;;;;;38.63;12.18;;;;;;;29.86;46.85;99542.94;10296515;28;20406;-70
2022/08/11 18:03:54;;;;;;;40.72;11.77;;;;;;;29.30;46.29;99522.50;10298372;28;20043;-69
